Time;durP1;ratioP1;P1;durP2;ratioP2;P2;SDS_P1;SDS_P2;PMS_P1;PMS_P2;Temp;Humidity;BMP_temperature;BMP_pressure;BME280_temperature;BME280_humidity;BME280_pressure;Samples;Min_cycle;Max_cycle;Signal;HPM_P1;HPM_P2
2022/06/02 00:01:20;;;;;;;3.67;3.28;;;12.70;99.90;;;;;;5098846;28;20656;-72
2022/06/02 00:04:00;;;;;;;3.80;3.50;;;12.60;99.90;;;;;;5098532;28;20680;-72
2022/06/02 00:06:53;;;;;;;4.55;3.42;;;12.60;99.90;;;;;;5094933;28;20243;-72
2022/06/02 00:09:51;;;;;;;3.90;3.55;;;12.50;99.90;;;;;;5097813;28;20175;-76
2022/06/02 00:12:29;;;;;;;5.28;3.40;;;12.50;99.90;;;;;;5094303;28;20277;-72
2022/06/02 00:15:15;;;;;;;4.30;3.90;;;12.40;99.90;;;;;;5098732;28;20251;-74
2022/06/02 00:18:13;;;;;;;4.00;3.72;;;12.50;99.90;;;;;;5094777;28;20253;-72
2022/06/02 00:20:57;;;;;;;3.78;3.58;;;12.50;99.90;;;;;;5076554;28;20305;-72
2022/06/02 00:23:45;;;;;;;5.75;3.90;;;12.40;99.90;;;;;;5108767;28;20236;-73
2022/06/02 00:26:24;;;;;;;4.53;4.13;;;12.40;99.90;;;;;;5093139;28;20240;-72
2022/06/02 00:29:12;;;;;;;3.70;3.50;;;12.40;99.90;;;;;;5094365;28;20183;-74
2022/06/02 00:31:49;;;;;;;4.55;4.22;;;12.30;99.90;;;;;;5094585;28;20192;-73
2022/06/02 00:34:36;;;;;;;4.20;3.90;;;12.30;99.90;;;;;;5092580;28;20241;-72
2022/06/02 00:37:39;;;;;;;4.28;3.88;;;12.30;99.90;;;;;;5094053;28;20218;-72
2022/06/02 00:40:07;;;;;;;4.22;3.83;;;12.30;99.90;;;;;;5097425;28;20199;-72
2022/06/02 00:42:56;;;;;;;4.10;3.80;;;12.20;99.90;;;;;;5102834;28;20680;-73
2022/06/02 00:45:23;;;;;;;4.20;3.90;;;12.20;99.90;;;;;;5077607;28;20204;-75
2022/06/02 00:48:10;;;;;;;4.40;4.10;;;12.20;99.90;;;;;;5088133;28;20537;-73
2022/06/02 00:51:05;;;;;;;4.10;3.80;;;12.10;99.90;;;;;;5096766;28;20197;-76
2022/06/02 00:53:33;;;;;;;4.25;3.95;;;12.10;99.90;;;;;;5093583;28;20182;-72
2022/06/02 00:59:30;;;;;;;4.00;3.70;;;12.00;99.90;;;;;;5092751;28;20736;-71
2022/06/02 01:01:56;;;;;;;5.05;4.50;;;12.00;99.90;;;;;;5099934;28;20193;-72
2022/06/02 01:04:23;;;;;;;3.92;3.72;;;12.00;99.90;;;;;;5098653;28;20664;-72
2022/06/02 01:07:30;;;;;;;3.90;3.60;;;12.00;99.90;;;;;;5094837;28;20206;-75
2022/06/02 01:10:28;;;;;;;4.55;4.18;;;12.00;99.90;;;;;;5093193;28;20198;-72
2022/06/02 01:13:19;;;;;;;4.18;3.88;;;11.90;99.90;;;;;;5100073;28;20266;-72
2022/06/02 01:16:22;;;;;;;4.13;3.85;;;11.90;99.90;;;;;;5101509;28;20227;-74
2022/06/02 01:19:08;;;;;;;4.30;3.92;;;11.90;99.90;;;;;;5093658;28;20182;-71
2022/06/02 01:22:04;;;;;;;4.22;3.83;;;11.90;99.90;;;;;;5084582;28;20193;-72
2022/06/02 01:24:50;;;;;;;4.25;3.95;;;11.80;99.90;;;;;;5094445;28;20190;-72
2022/06/02 01:27:51;;;;;;;4.78;4.38;;;11.70;99.90;;;;;;5094526;28;20178;-72
2022/06/02 01:30:32;;;;;;;5.10;4.70;;;11.70;99.90;;;;;;5095626;28;20281;-72
2022/06/02 01:33:27;;;;;;;4.75;4.45;;;11.60;99.90;;;;;;5106345;28;20185;-76
2022/06/02 01:36:06;;;;;;;4.47;4.18;;;11.50;99.90;;;;;;5078682;28;20195;-72
2022/06/02 01:38:50;;;;;;;4.78;4.43;;;11.50;99.90;;;;;;5095158;28;20182;-74
2022/06/02 01:41:57;;;;;;;4.97;4.63;;;11.60;99.90;;;;;;5098786;28;20272;-72
2022/06/02 01:44:36;;;;;;;4.70;4.40;;;11.50;99.90;;;;;;5100175;28;20182;-72
2022/06/02 01:47:30;;;;;;;4.90;4.53;;;11.60;99.90;;;;;;5097431;28;20539;-72
2022/06/02 01:50:26;;;;;;;4.72;4.32;;;11.60;99.90;;;;;;5098815;28;20636;-72
2022/06/02 01:53:14;;;;;;;5.05;4.65;;;11.50;99.90;;;;;;5092031;28;20240;-72
2022/06/02 01:56:04;;;;;;;5.13;4.70;;;11.50;99.90;;;;;;5101810;28;20185;-71
2022/06/02 01:58:36;;;;;;;5.30;4.57;;;11.60;99.90;;;;;;5098119;28;20268;-74
2022/06/02 02:01:07;;;;;;;4.43;4.13;;;11.60;99.90;;;;;;5104528;28;20198;-72
2022/06/02 02:04:11;;;;;;;5.00;4.53;;;11.60;99.90;;;;;;5105201;28;20680;-72
2022/06/02 02:07:07;;;;;;;4.93;4.53;;;11.50;99.90;;;;;;5094362;28;20188;-75
2022/06/02 02:09:45;;;;;;;5.05;4.65;;;11.50;99.90;;;;;;5095187;28;20569;-72
2022/06/02 02:12:37;;;;;;;5.35;4.90;;;11.40;99.90;;;;;;5097998;28;20178;-75
2022/06/02 02:15:16;;;;;;;5.03;4.63;;;11.40;99.90;;;;;;5093053;28;20187;-73
2022/06/02 02:17:59;;;;;;;4.97;4.68;;;11.40;99.90;;;;;;5085883;28;20175;-74
2022/06/02 02:20:27;;;;;;;5.57;5.00;;;11.40;99.90;;;;;;5095730;28;20278;-75
2022/06/02 02:23:11;;;;;;;5.65;5.25;;;11.40;99.90;;;;;;5085464;28;20202;-74
2022/06/02 02:25:44;;;;;;;5.78;5.28;;;11.40;99.90;;;;;;5090425;28;20227;-74
2022/06/02 02:28:38;;;;;;;5.82;5.32;;;11.40;99.90;;;;;;5093681;28;20201;-73
2022/06/02 02:31:25;;;;;;;5.60;5.20;;;11.40;99.90;;;;;;5086947;28;20195;-75
2022/06/02 02:34:23;;;;;;;7.90;5.90;;;11.30;99.90;;;;;;5091995;28;20650;-73
2022/06/02 02:37:14;;;;;;;5.03;4.70;;;11.30;99.90;;;;;;5052317;28;20197;-73
2022/06/02 02:39:46;;;;;;;6.15;5.43;;;11.30;99.90;;;;;;5080981;28;20297;-73
2022/06/02 02:42:14;;;;;;;5.63;5.22;;;11.30;99.90;;;;;;5092087;28;20179;-75
2022/06/02 02:45:30;;;;;;;6.50;5.90;;;11.20;99.90;;;;;;5088915;28;20175;-74
2022/06/02 02:48:14;;;;;;;6.25;5.45;;;11.30;99.90;;;;;;5049930;28;20647;-73
2022/06/02 02:51:13;;;;;;;6.68;5.43;;;11.30;99.90;;;;;;5092968;28;20194;-73
2022/06/02 02:54:16;;;;;;;5.75;5.35;;;11.40;99.90;;;;;;5084090;28;20563;-73
2022/06/02 02:57:05;;;;;;;6.30;5.80;;;11.50;99.90;;;;;;5044754;28;20198;-73
2022/06/02 02:59:42;;;;;;;7.07;6.40;;;11.60;99.90;;;;;;5096742;28;20222;-73
2022/06/02 03:02:16;;;;;;;6.85;6.25;;;11.70;99.90;;;;;;5092659;28;20187;-75
2022/06/02 03:05:11;;;;;;;6.70;6.18;;;11.80;99.90;;;;;;5082053;28;20578;-73
2022/06/02 03:07:37;;;;;;;6.95;6.35;;;11.90;99.90;;;;;;5096249;28;20625;-74
2022/06/02 03:10:22;;;;;;;6.63;6.13;;;12.00;99.90;;;;;;5089652;28;20255;-76
2022/06/02 03:13:16;;;;;;;10.20;6.95;;;12.10;99.90;;;;;;5089722;28;20186;-74
2022/06/02 03:15:48;;;;;;;7.10;6.40;;;12.10;99.90;;;;;;5090864;28;20178;-73
2022/06/02 03:18:45;;;;;;;6.32;5.93;;;12.20;99.90;;;;;;5092077;28;20261;-76
2022/06/02 03:21:24;;;;;;;6.38;5.97;;;12.30;99.90;;;;;;5086345;28;20211;-73
2022/06/02 03:24:23;;;;;;;5.60;5.20;;;12.40;99.90;;;;;;5095777;28;20209;-76
2022/06/02 03:27:19;;;;;;;5.65;5.25;;;12.50;99.90;;;;;;5070374;28;20216;-78
2022/06/02 03:30:01;;;;;;;6.13;5.63;;;12.60;99.90;;;;;;5090055;28;20244;-79
2022/06/02 03:32:33;;;;;;;5.85;5.25;;;12.60;99.90;;;;;;5089218;28;20183;-74
2022/06/02 03:35:26;;;;;;;7.10;6.57;;;12.80;99.90;;;;;;5089796;28;20619;-74
2022/06/02 03:38:29;;;;;;;5.85;5.45;;;12.80;99.90;;;;;;5090348;28;20262;-74
2022/06/02 03:41:29;;;;;;;5.80;5.40;;;12.80;99.90;;;;;;5088602;28;20282;-75
2022/06/02 03:44:23;;;;;;;5.68;5.07;;;12.80;99.90;;;;;;5094278;28;20653;-74
2022/06/02 03:47:06;;;;;;;4.43;3.92;;;12.80;99.90;;;;;;5097960;28;20177;-73
2022/06/02 03:49:50;;;;;;;5.20;4.80;;;12.80;99.90;;;;;;5099490;28;20289;-74
2022/06/02 03:52:39;;;;;;;4.90;4.60;;;12.90;99.90;;;;;;5079463;28;20211;-75
2022/06/02 03:55:20;;;;;;;8.73;4.50;;;12.90;99.90;;;;;;5089050;28;20175;-74
2022/06/02 03:57:57;;;;;;;4.80;4.40;;;12.90;99.90;;;;;;5082729;28;20741;-77
2022/06/02 04:00:27;;;;;;;5.18;4.68;;;12.90;99.90;;;;;;5092418;28;20711;-73
2022/06/02 04:03:02;;;;;;;4.82;4.40;;;12.90;99.90;;;;;;5086227;28;20187;-73
2022/06/02 04:05:49;;;;;;;4.18;3.80;;;13.00;99.90;;;;;;5095325;28;20182;-73
2022/06/02 04:08:30;;;;;;;5.05;4.00;;;13.10;99.90;;;;;;5106129;27;20174;-73
2022/06/02 04:10:58;;;;;;;4.28;3.97;;;13.10;99.90;;;;;;5093160;28;20286;-72
2022/06/02 04:13:47;;;;;;;4.63;4.18;;;13.20;99.90;;;;;;5102152;28;20587;-73
2022/06/02 04:16:24;;;;;;;4.15;3.85;;;13.20;99.90;;;;;;5100721;28;20170;-72
2022/06/02 04:22:24;;;;;;;4.63;3.83;;;13.40;99.90;;;;;;5097772;28;20197;-73
2022/06/02 04:25:18;;;;;;;3.65;3.45;;;13.50;99.90;;;;;;5099229;28;20675;-72
2022/06/02 04:28:01;;;;;;;3.88;3.67;;;13.60;99.90;;;;;;5095631;28;20195;-73
2022/06/02 04:30:55;;;;;;;4.70;4.28;;;13.70;99.90;;;;;;5109422;27;20234;-73
2022/06/02 04:33:42;;;;;;;4.00;3.80;;;13.80;99.90;;;;;;5103099;28;20264;-75
2022/06/02 04:36:11;;;;;;;3.97;3.78;;;13.90;99.90;;;;;;5101845;28;20185;-72
2022/06/02 04:38:48;;;;;;;4.93;4.43;;;14.00;99.90;;;;;;5091959;28;20674;-72
2022/06/02 04:41:35;;;;;;;4.70;4.25;;;13.90;99.90;;;;;;5087504;28;20217;-73
2022/06/02 04:44:20;;;;;;;4.32;4.13;;;13.90;99.90;;;;;;5100327;27;20229;-73
2022/06/02 04:46:59;;;;;;;3.78;3.58;;;13.90;99.90;;;;;;5094688;28;20249;-73
2022/06/02 04:49:44;;;;;;;4.78;3.97;;;14.00;99.90;;;;;;5087714;28;20182;-73
2022/06/02 04:52:20;;;;;;;4.47;4.07;;;14.20;99.90;;;;;;5078570;28;20174;-76
2022/06/02 04:54:57;;;;;;;5.05;4.65;;;14.30;99.90;;;;;;5089035;28;20174;-73
2022/06/02 04:57:27;;;;;;;4.78;4.35;;;14.50;99.90;;;;;;5102298;28;20177;-73
2022/06/02 05:00:06;;;;;;;4.40;4.07;;;14.70;99.90;;;;;;5087779;28;20260;-73
2022/06/02 05:03:19;;;;;;;4.07;3.78;;;14.80;99.90;;;;;;5098216;28;20276;-73
2022/06/02 05:06:16;;;;;;;4.70;4.32;;;14.80;99.90;;;;;;5067870;28;20664;-73
2022/06/02 05:09:19;;;;;;;4.28;3.88;;;14.70;99.90;;;;;;5098129;28;20206;-74
2022/06/02 05:12:00;;;;;;;4.70;4.30;;;14.70;99.90;;;;;;5076501;28;20278;-72
2022/06/02 05:14:26;;;;;;;4.05;3.75;;;14.60;99.90;;;;;;5088660;28;20194;-76
2022/06/02 05:17:11;;;;;;;5.30;4.38;;;14.40;99.90;;;;;;5091070;28;20174;-75
2022/06/02 05:19:54;;;;;;;4.15;3.88;;;14.20;99.90;;;;;;5090650;28;20194;-74
2022/06/02 05:22:54;;;;;;;4.50;4.20;;;14.10;99.90;;;;;;5094116;28;20206;-76
2022/06/02 05:25:45;;;;;;;4.57;4.28;;;14.10;99.90;;;;;;5076136;28;20227;-75
2022/06/02 05:28:13;;;;;;;5.40;4.50;;;14.10;99.90;;;;;;5090895;28;20269;-77
2022/06/02 05:31:17;;;;;;;4.70;4.40;;;14.10;99.90;;;;;;5099054;28;20244;-74
2022/06/02 05:33:55;;;;;;;4.68;4.28;;;14.10;99.90;;;;;;5094313;28;20182;-74
2022/06/02 05:36:58;;;;;;;4.95;4.50;;;14.30;99.90;;;;;;5101774;28;20199;-75
2022/06/02 05:39:39;;;;;;;4.97;4.68;;;14.40;99.90;;;;;;5093306;28;20210;-74
2022/06/02 05:42:19;;;;;;;4.43;4.10;;;14.50;99.90;;;;;;5110377;28;20767;-78
2022/06/02 05:44:48;;;;;;;4.57;4.30;;;14.50;99.90;;;;;;5079729;28;20235;-75
2022/06/02 05:47:47;;;;;;;4.55;4.18;;;14.60;99.90;;;;;;5087167;28;20178;-75
2022/06/02 05:50:18;;;;;;;11.80;4.53;;;14.60;99.90;;;;;;5087948;28;20211;-76
2022/06/02 05:52:50;;;;;;;5.35;5.05;;;14.70;99.90;;;;;;5097719;28;20186;-71
2022/06/02 05:55:28;;;;;;;5.90;5.38;;;14.80;99.90;;;;;;5097019;28;20178;-71
2022/06/02 05:57:53;;;;;;;6.35;5.10;;;14.90;99.90;;;;;;5105503;28;20662;-71
2022/06/02 06:00:25;;;;;;;5.60;5.10;;;15.00;99.90;;;;;;5095382;28;20226;-72
2022/06/02 06:03:06;;;;;;;5.10;4.70;;;15.10;99.90;;;;;;5108420;28;20228;-75
2022/06/02 06:05:37;;;;;;;5.93;5.43;;;15.20;99.90;;;;;;5101578;28;20197;-71
2022/06/02 06:08:22;;;;;;;7.65;5.40;;;15.30;99.90;;;;;;5100683;28;20198;-71
2022/06/02 06:10:53;;;;;;;5.63;5.20;;;15.30;99.90;;;;;;5100389;28;20195;-72
2022/06/02 06:13:28;;;;;;;5.78;5.28;;;15.40;99.90;;;;;;5097979;28;20187;-71
2022/06/02 06:15:56;;;;;;;6.45;5.95;;;15.40;99.90;;;;;;5102274;28;20179;-72
2022/06/02 06:18:44;;;;;;;6.93;6.40;;;15.50;99.90;;;;;;5095953;28;20264;-71
2022/06/02 06:21:48;;;;;;;6.07;5.63;;;15.60;99.90;;;;;;5091135;28;20186;-75
2022/06/02 06:24:20;;;;;;;5.90;5.38;;;15.80;99.90;;;;;;5105901;28;20729;-72
2022/06/02 06:27:21;;;;;;;6.88;6.38;;;15.90;99.90;;;;;;5084484;28;20175;-73
2022/06/02 06:30:01;;;;;;;6.25;5.72;;;15.90;99.90;;;;;;5093944;28;20194;-72
2022/06/02 06:32:54;;;;;;;6.10;5.68;;;16.00;99.90;;;;;;5087172;28;20162;-72
2022/06/02 06:35:48;;;;;;;5.22;4.90;;;16.10;99.90;;;;;;5096540;28;20181;-76
2022/06/02 06:38:19;;;;;;;5.95;5.55;;;16.20;99.90;;;;;;5098127;28;20178;-71
2022/06/02 06:41:00;;;;;;;5.15;4.82;;;16.30;99.90;;;;;;5089306;28;20695;-72
2022/06/02 06:43:45;;;;;;;4.95;4.55;;;16.40;99.90;;;;;;5089402;28;20205;-71
2022/06/02 06:46:24;;;;;;;5.57;5.15;;;16.50;99.90;;;;;;5094028;28;20178;-75
2022/06/02 06:49:09;;;;;;;5.32;4.90;;;16.60;99.90;;;;;;5096045;28;20272;-72
2022/06/02 06:51:58;;;;;;;5.63;5.20;;;16.70;99.90;;;;;;5101151;28;20174;-74
2022/06/02 06:54:38;;;;;;;5.18;4.82;;;16.70;99.90;;;;;;5091982;28;20594;-74
2022/06/02 06:57:13;;;;;;;5.68;5.18;;;16.80;99.90;;;;;;5094808;28;20679;-74
2022/06/02 06:59:50;;;;;;;4.72;4.43;;;16.90;99.90;;;;;;5089623;28;20197;-75
2022/06/02 07:02:50;;;;;;;5.25;4.80;;;16.90;99.90;;;;;;5102504;28;20581;-75
2022/06/02 07:05:28;;;;;;;5.13;4.78;;;17.10;99.90;;;;;;5092192;28;20171;-74
2022/06/02 07:08:11;;;;;;;5.38;4.97;;;17.20;99.90;;;;;;5100135;28;20189;-74
2022/06/02 07:10:57;;;;;;;4.75;4.45;;;17.40;99.90;;;;;;5103873;28;20189;-73
2022/06/02 07:13:26;;;;;;;4.03;3.83;;;17.40;99.90;;;;;;5100171;28;20182;-77
2022/06/02 07:16:14;;;;;;;5.57;5.15;;;17.50;99.90;;;;;;5102764;28;20184;-73
2022/06/02 07:19:16;;;;;;;4.22;3.92;;;17.60;99.90;;;;;;5095267;28;20339;-73
2022/06/02 07:21:45;;;;;;;4.78;4.38;;;17.80;99.90;;;;;;5099212;28;20197;-74
2022/06/02 07:24:29;;;;;;;4.53;4.13;;;17.90;99.90;;;;;;5097324;28;20206;-73
2022/06/02 07:27:19;;;;;;;4.65;4.35;;;18.00;99.90;;;;;;5093447;28;20218;-72
2022/06/02 07:30:18;;;;;;;4.05;3.53;;;18.10;99.90;;;;;;5092811;28;20209;-72
2022/06/02 07:33:04;;;;;;;6.55;4.20;;;18.20;99.90;;;;;;5090568;28;20197;-75
2022/06/02 07:35:55;;;;;;;4.35;3.95;;;18.30;99.90;;;;;;5092700;28;20178;-76
2022/06/02 07:38:38;;;;;;;4.03;3.70;;;18.40;99.90;;;;;;5096171;28;20177;-72
2022/06/02 07:41:19;;;;;;;6.95;3.60;;;18.40;99.90;;;;;;5106548;28;20258;-73
2022/06/02 07:44:14;;;;;;;4.68;3.35;;;18.40;99.90;;;;;;5093923;28;20258;-72
2022/06/02 07:47:10;;;;;;;4.07;3.10;;;18.50;99.90;;;;;;5091037;28;20175;-74
2022/06/02 07:49:46;;;;;;;3.00;2.90;;;18.60;99.90;;;;;;5070335;28;20587;-77
2022/06/02 07:52:35;;;;;;;3.25;2.97;;;18.80;99.90;;;;;;5083789;28;20186;-79
2022/06/02 07:55:38;;;;;;;2.80;2.60;;;18.90;99.90;;;;;;5087416;28;20167;-75
2022/06/02 07:58:23;;;;;;;3.35;3.08;;;19.00;99.90;;;;;;5088126;28;20178;-74
2022/06/02 08:01:11;;;;;;;3.72;3.00;;;19.10;99.90;;;;;;5083088;28;20577;-75
2022/06/02 08:04:07;;;;;;;2.95;2.75;;;19.20;99.90;;;;;;5090703;28;20686;-77
2022/06/02 08:06:36;;;;;;;3.40;3.20;;;19.30;99.90;;;;;;5096810;28;20185;-76
2022/06/02 08:09:27;;;;;;;3.42;3.13;;;19.40;99.90;;;;;;5095292;28;20178;-78
2022/06/02 08:12:15;;;;;;;3.28;2.97;;;19.60;99.90;;;;;;5086999;28;20254;-79
2022/06/02 08:15:01;;;;;;;5.60;2.95;;;19.80;99.90;;;;;;5088057;28;20460;-76
2022/06/02 08:17:56;;;;;;;4.55;3.10;;;19.90;99.90;;;;;;5096918;28;20174;-78
2022/06/02 08:20:43;;;;;;;4.28;3.10;;;19.90;99.90;;;;;;5081864;28;20210;-76
2022/06/02 08:23:54;;;;;;;3.95;2.65;;;20.00;99.90;;;;;;5087519;28;20712;-77
2022/06/02 08:26:39;;;;;;;3.45;2.95;;;19.90;99.90;;;;;;5094951;28;20185;-77
2022/06/02 08:29:11;;;;;;;3.75;2.17;;;20.00;99.90;;;;;;5089411;28;20587;-76
2022/06/02 08:32:10;;;;;;;2.65;2.45;;;20.10;99.90;;;;;;5087466;28;20178;-76
2022/06/02 08:34:45;;;;;;;2.72;2.53;;;20.20;99.90;;;;;;5089282;28;20178;-79
2022/06/02 08:37:32;;;;;;;3.67;2.95;;;20.50;99.90;;;;;;5088445;28;20181;-76
2022/06/02 08:40:06;;;;;;;2.85;2.65;;;20.60;99.90;;;;;;5096572;28;20222;-79
2022/06/02 08:43:10;;;;;;;2.70;2.60;;;20.60;99.90;;;;;;5087147;28;20234;-76
2022/06/02 08:45:51;;;;;;;3.00;2.80;;;20.70;99.90;;;;;;5091215;28;20190;-82
2022/06/02 08:48:42;;;;;;;2.55;2.45;;;20.60;99.90;;;;;;5083452;28;20177;-76
2022/06/02 08:51:36;;;;;;;2.88;2.67;;;20.60;99.90;;;;;;5076938;28;20420;-77
2022/06/02 08:54:33;;;;;;;2.50;2.40;;;20.60;99.90;;;;;;5098874;28;20178;-76
2022/06/02 08:57:26;;;;;;;3.38;3.00;;;20.50;99.90;;;;;;5104808;27;20182;-75
2022/06/02 09:00:07;;;;;;;2.88;2.78;;;20.60;99.90;;;;;;5089248;28;20198;-76
2022/06/02 09:02:51;;;;;;;3.17;2.88;;;20.80;99.90;;;;;;5101644;28;20268;-77
2022/06/02 09:05:55;;;;;;;3.53;3.13;;;20.90;99.90;;;;;;5096157;28;20258;-78
2022/06/02 09:08:48;;;;;;;3.50;3.00;;;21.20;99.90;;;;;;5086433;28;20672;-79
2022/06/02 09:11:31;;;;;;;2.78;2.58;;;21.50;99.90;;;;;;5096899;28;20201;-79
2022/06/02 09:14:03;;;;;;;3.10;2.78;;;21.80;99.90;;;;;;5089579;28;20273;-77
2022/06/02 09:16:29;;;;;;;3.25;2.95;;;22.10;99.90;;;;;;5090909;28;20181;-79
2022/06/02 09:19:39;;;;;;;3.08;2.58;;;22.20;99.90;;;;;;5098475;28;20264;-79
2022/06/02 09:22:12;;;;;;;3.38;3.08;;;22.30;99.90;;;;;;5087064;28;20226;-79
2022/06/02 09:24:41;;;;;;;3.38;3.10;;;22.50;99.90;;;;;;5086728;28;20221;-77
2022/06/02 09:27:43;;;;;;;3.42;3.13;;;22.70;99.90;;;;;;5090218;28;20227;-76
2022/06/02 09:30:23;;;;;;;2.78;2.58;;;22.90;99.90;;;;;;5094205;28;20300;-78
2022/06/02 09:33:42;;;;;;;2.30;2.20;;;23.40;99.90;;;;;;5101816;28;20196;-75
2022/06/02 09:36:26;;;;;;;6.22;2.60;;;25.20;99.90;;;;;;5021565;28;20179;-78
2022/06/02 09:39:10;;;;;;;3.38;2.55;;;26.40;94.90;;;;;;5095038;28;20213;-76
2022/06/02 09:41:52;;;;;;;2.05;1.95;;;28.40;79.10;;;;;;5091153;28;20725;-76
2022/06/02 09:44:28;;;;;;;3.33;2.10;;;29.90;72.30;;;;;;5094070;28;20237;-74
2022/06/02 09:47:18;;;;;;;1.80;1.70;;;31.30;61.20;;;;;;5092298;28;20231;-78
2022/06/02 09:50:05;;;;;;;1.88;1.77;;;33.20;56.40;;;;;;5095351;28;20295;-77
2022/06/02 09:52:42;;;;;;;2.83;2.00;;;34.70;51.80;;;;;;5095529;28;20174;-76
2022/06/02 09:55:40;;;;;;;3.92;2.28;;;35.90;51.70;;;;;;5093467;28;20667;-76
2022/06/02 09:58:16;;;;;;;2.15;2.05;;;35.80;48.40;;;;;;5043645;28;20628;-76
2022/06/02 10:01:01;;;;;;;2.10;1.90;;;36.40;45.90;;;;;;5092123;28;20666;-79
2022/06/02 10:03:43;;;;;;;2.58;2.20;;;35.30;46.00;;;;;;5089578;28;20573;-79
2022/06/02 10:06:17;;;;;;;4.45;2.28;;;33.80;50.10;;;;;;5100920;28;20248;-78
2022/06/02 10:09:06;;;;;;;2.03;1.85;;;34.70;48.70;;;;;;5084328;28;20225;-77
2022/06/02 10:12:54;;;;;;;5.43;2.05;;;35.90;46.50;;;;;;5098080;28;20193;-77
2022/06/02 10:15:02;;;;;;;6.32;1.95;;;35.50;46.70;;;;;;5106539;28;20184;-81
2022/06/02 10:17:46;;;;;;;3.00;1.80;;;33.80;48.00;;;;;;5081163;28;20187;-72
2022/06/02 10:20:37;;;;;;;5.70;2.30;;;32.30;50.30;;;;;;5098181;28;20670;-73
2022/06/02 10:23:18;;;;;;;3.03;2.13;;;31.50;51.30;;;;;;5098072;28;20209;-76
2022/06/02 10:26:06;;;;;;;2.80;1.70;;;31.30;53.70;;;;;;5098489;28;20265;-75
2022/06/02 10:29:10;;;;;;;4.65;2.13;;;32.40;48.40;;;;;;5086717;28;20208;-75
2022/06/02 10:31:55;;;;;;;2.67;2.08;;;32.50;47.60;;;;;;5093245;28;20173;-75
2022/06/02 10:34:47;;;;;;;2.35;2.00;;;31.60;49.40;;;;;;5091785;28;20181;-75
2022/06/02 10:37:35;;;;;;;2.65;1.90;;;30.50;51.80;;;;;;5092848;28;20563;-76
2022/06/02 10:40:15;;;;;;;2.22;2.00;;;30.00;55.60;;;;;;5099345;28;20683;-75
2022/06/02 10:43:04;;;;;;;2.53;2.33;;;30.80;54.40;;;;;;5089584;28;20205;-75
2022/06/02 10:45:58;;;;;;;2.53;1.95;;;32.60;50.30;;;;;;5093860;28;20174;-76
2022/06/02 10:48:53;;;;;;;2.95;1.65;;;33.10;47.50;;;;;;5083406;28;20181;-75
2022/06/02 10:51:40;;;;;;;2.00;1.90;;;33.40;49.80;;;;;;5084294;28;20211;-76
2022/06/02 10:54:22;;;;;;;3.47;1.90;;;34.40;46.00;;;;;;5084350;28;20182;-76
2022/06/02 10:57:06;;;;;;;1.48;1.45;;;33.20;46.80;;;;;;5091793;28;20179;-74
2022/06/02 10:59:41;;;;;;;1.80;1.40;;;31.50;48.00;;;;;;5086234;28;20209;-77
2022/06/02 11:02:37;;;;;;;1.83;1.45;;;31.70;50.50;;;;;;5084044;28;20555;-77
2022/06/02 11:05:18;;;;;;;2.42;1.70;;;32.80;46.60;;;;;;5088264;28;20192;-79
2022/06/02 11:08:02;;;;;;;1.50;1.40;;;34.70;43.40;;;;;;5091894;28;20249;-78
2022/06/02 11:10:33;;;;;;;1.00;1.00;;;36.60;41.90;;;;;;5090213;28;20569;-77
2022/06/02 11:13:26;;;;;;;1.75;1.33;;;37.70;40.40;;;;;;5089121;28;20638;-78
2022/06/02 11:16:09;;;;;;;1.05;1.05;;;38.10;38.10;;;;;;5090416;28;20185;-77
2022/06/02 11:19:04;;;;;;;1.00;1.00;;;38.20;38.70;;;;;;5087124;28;20178;-77
2022/06/02 11:21:39;;;;;;;1.95;1.40;;;38.30;37.00;;;;;;5091591;28;20683;-80
2022/06/02 11:24:13;;;;;;;2.22;1.20;;;37.60;38.40;;;;;;5090965;28;20209;-83
2022/06/02 11:26:48;;;;;;;1.10;1.10;;;38.20;37.50;;;;;;5091344;28;20172;-82
2022/06/02 11:29:51;;;;;;;1.40;1.23;;;38.60;36.90;;;;;;5089581;28;20228;-79
2022/06/02 11:32:19;;;;;;;2.45;1.25;;;38.70;37.10;;;;;;5087724;28;20178;-81
2022/06/02 11:34:56;;;;;;;1.13;1.10;;;38.80;36.70;;;;;;5098817;28;20728;-78
2022/06/02 11:37:47;;;;;;;1.25;1.20;;;38.50;36.90;;;;;;5093910;28;20270;-79
2022/06/02 11:40:41;;;;;;;0.88;0.88;;;38.80;36.70;;;;;;5089377;28;20282;-79
2022/06/02 11:43:16;;;;;;;1.30;0.88;;;38.80;37.00;;;;;;5086831;28;20258;-80
2022/06/02 11:46:03;;;;;;;1.50;1.25;;;38.80;37.50;;;;;;5089260;28;20188;-77
2022/06/02 11:48:40;;;;;;;1.30;1.20;;;39.00;38.70;;;;;;5089630;28;20517;-78
2022/06/02 11:51:12;;;;;;;1.25;1.15;;;38.70;37.90;;;;;;5088044;28;20350;-79
2022/06/02 11:53:38;;;;;;;1.10;1.10;;;38.20;38.80;;;;;;5081903;28;20201;-77
2022/06/02 11:56:28;;;;;;;2.15;1.20;;;37.40;37.50;;;;;;5084493;28;20653;-75
2022/06/02 11:59:15;;;;;;;1.25;1.25;;;36.30;37.90;;;;;;5092509;28;20183;-77
2022/06/02 12:01:52;;;;;;;1.30;1.30;;;35.80;38.40;;;;;;5089955;28;20201;-76
2022/06/02 12:04:20;;;;;;;1.33;1.30;;;34.50;39.40;;;;;;5083831;28;20234;-77
2022/06/02 12:07:24;;;;;;;1.27;1.23;;;33.90;41.70;;;;;;5087634;28;20175;-78
2022/06/02 12:10:01;;;;;;;2.80;1.40;;;34.70;40.20;;;;;;5063623;28;20281;-76
2022/06/02 12:12:45;;;;;;;2.35;1.30;;;35.20;42.20;;;;;;5081711;28;20170;-75
2022/06/02 12:15:57;;;;;;;1.33;1.25;;;36.70;39.40;;;;;;5088493;28;20243;-76
2022/06/02 12:19:02;;;;;;;2.15;1.25;;;36.60;41.40;;;;;;5069316;28;20197;-77
2022/06/02 12:21:27;;;;;;;1.20;1.20;;;37.10;39.20;;;;;;5051825;28;20236;-75
2022/06/02 12:24:32;;;;;;;1.23;1.13;;;36.20;39.50;;;;;;5087447;28;20266;-75
2022/06/02 12:27:34;;;;;;;1.00;1.00;;;35.70;40.20;;;;;;5047470;28;20214;-73
2022/06/02 12:30:26;;;;;;;2.88;1.33;;;34.90;40.90;;;;;;5044856;28;20307;-73
2022/06/02 12:33:04;;;;;;;0.88;0.88;;;35.10;40.80;;;;;;5074104;28;20191;-73
2022/06/02 12:35:48;;;;;;;1.42;1.33;;;34.70;39.80;;;;;;5091426;28;20219;-73
2022/06/02 12:38:45;;;;;;;1.65;1.55;;;34.80;41.90;;;;;;5090254;28;20216;-74
2022/06/02 12:41:30;;;;;;;1.35;1.10;;;36.00;39.70;;;;;;5091857;28;20565;-73
2022/06/02 12:44:16;;;;;;;1.25;1.02;;;36.80;38.50;;;;;;5092310;28;20554;-74
2022/06/02 12:46:51;;;;;;;1.45;1.40;;;37.60;38.00;;;;;;5095177;28;20398;-73
2022/06/02 12:49:43;;;;;;;1.50;1.40;;;39.00;36.20;;;;;;5085148;28;21242;-72
2022/06/02 12:52:47;;;;;;;1.50;1.40;;;37.50;36.60;;;;;;5091429;28;20181;-74
2022/06/02 12:55:38;;;;;;;1.58;1.23;;;35.00;39.00;;;;;;5086003;28;20182;-71
2022/06/02 12:58:41;;;;;;;1.52;1.08;;;33.00;43.10;;;;;;5085554;28;20173;-71
2022/06/02 13:01:26;;;;;;;1.95;1.50;;;31.80;43.60;;;;;;5078883;28;20204;-72
2022/06/02 13:04:13;;;;;;;1.48;1.38;;;31.20;44.90;;;;;;5082614;28;20200;-72
2022/06/02 13:06:56;;;;;;;1.20;1.20;;;30.80;44.10;;;;;;5096183;28;20173;-74
2022/06/02 13:10:01;;;;;;;1.23;1.00;;;32.20;42.40;;;;;;5098782;28;20674;-74
2022/06/02 13:12:38;;;;;;;1.35;1.25;;;36.50;39.30;;;;;;5094004;28;20184;-74
2022/06/02 13:15:48;;;;;;;1.42;1.25;;;41.00;36.60;;;;;;5098565;28;20219;-72
2022/06/02 13:18:24;;;;;;;2.42;1.05;;;44.00;33.30;;;;;;5054312;28;20206;-74
2022/06/02 13:21:15;;;;;;;1.30;1.20;;;47.10;30.80;;;;;;5093522;28;20190;-74
2022/06/02 13:23:59;;;;;;;0.88;0.88;;;49.30;29.60;;;;;;5093151;28;20333;-74
2022/06/02 13:27:15;;;;;;;1.55;1.00;;;50.00;28.30;;;;;;5096522;28;20253;-74
2022/06/02 13:30:22;;;;;;;1.30;1.20;;;49.80;27.30;;;;;;5062576;28;20222;-74
2022/06/02 13:33:26;;;;;;;0.95;0.95;;;48.30;27.90;;;;;;5082119;28;20256;-77
2022/06/02 13:36:25;;;;;;;1.10;1.00;;;47.90;28.90;;;;;;5089108;28;20174;-74
2022/06/02 13:39:09;;;;;;;2.05;0.80;;;47.60;28.50;;;;;;5087975;28;20215;-74
2022/06/02 13:42:09;;;;;;;1.95;1.20;;;48.40;29.70;;;;;;5088217;28;20682;-74
2022/06/02 13:44:54;;;;;;;1.38;0.88;;;47.80;27.80;;;;;;5089230;28;20358;-75
2022/06/02 13:47:38;;;;;;;1.48;0.98;;;47.60;28.80;;;;;;5083121;28;20352;-74
2022/06/02 13:50:15;;;;;;;1.02;1.02;;;48.30;28.40;;;;;;5087724;28;20182;-75
2022/06/02 13:52:53;;;;;;;0.77;0.70;;;49.30;27.80;;;;;;5094845;28;20174;-75
2022/06/02 13:58:37;;;;;;;1.13;1.08;;;47.30;27.70;;;;;;5091765;28;20204;-73
2022/06/02 14:01:24;;;;;;;1.00;0.73;;;49.80;27.80;;;;;;5097254;28;20233;-74
2022/06/02 14:04:05;;;;;;;2.05;0.80;;;52.70;25.90;;;;;;5095680;28;20568;-72
2022/06/02 14:06:46;;;;;;;1.38;0.88;;;54.80;25.80;;;;;;5099810;28;20177;-75
2022/06/02 14:09:30;;;;;;;0.88;0.85;;;52.40;25.50;;;;;;5092384;28;20174;-72
2022/06/02 14:12:20;;;;;;;0.80;0.80;;;47.20;27.10;;;;;;5095280;28;20189;-74
2022/06/02 14:15:19;;;;;;;0.95;0.95;;;46.50;27.50;;;;;;5091095;28;20178;-76
2022/06/02 14:18:10;;;;;;;4.32;1.05;;;47.20;28.00;;;;;;5094788;28;20228;-76
2022/06/02 14:20:50;;;;;;;2.20;0.90;;;46.90;27.60;;;;;;5092943;28;20578;-76
2022/06/02 14:23:26;;;;;;;1.02;0.93;;;44.30;28.40;;;;;;5095637;28;20201;-76
2022/06/02 14:26:20;;;;;;;0.85;0.85;;;43.40;29.50;;;;;;5095935;28;20184;-76
2022/06/02 14:28:52;;;;;;;0.80;0.70;;;44.60;29.00;;;;;;5093585;28;20189;-75
2022/06/02 14:31:55;;;;;;;1.75;0.93;;;45.60;28.60;;;;;;5094678;28;20226;-77
2022/06/02 14:34:39;;;;;;;0.77;0.60;;;46.70;28.20;;;;;;5089842;28;20656;-76